Time;durP1;ratioP1;P1;durP2;ratioP2;P2;SDS_P1;SDS_P2;PMS_P1;PMS_P2;Temp;Humidity;BMP_temperature;BMP_pressure;BME280_temperature;BME280_humidity;BME280_pressure;Samples;Min_cycle;Max_cycle;Signal;HPM_P1;HPM_P2
2021/08/05 00:00:25;;;;;;;;;;;14.20;99.90;;;;;;5053322;28;19925;-75
2021/08/05 00:02:52;;;;;;;;;;;14.20;99.90;;;;;;5052087;28;19924;-75
2021/08/05 00:05:19;;;;;;;;;;;14.20;99.90;;;;;;5052440;28;19924;-75
2021/08/05 00:07:50;;;;;;;;;;;14.30;99.90;;;;;;5072580;28;19947;-75
2021/08/05 00:10:18;;;;;;;;;;;14.20;99.90;;;;;;5070225;28;20527;-75
2021/08/05 00:12:48;;;;;;;;;;;14.20;99.90;;;;;;5057070;28;19935;-75
2021/08/05 00:15:20;;;;;;;;;;;14.20;99.90;;;;;;5069473;28;19928;-75
2021/08/05 00:17:51;;;;;;;;;;;14.20;99.90;;;;;;5057991;28;19924;-75
2021/08/05 00:20:23;;;;;;;;;;;14.20;99.90;;;;;;5053024;28;19975;-75
2021/08/05 00:22:50;;;;;;;;;;;14.10;99.90;;;;;;5055926;28;20398;-75
2021/08/05 00:25:21;;;;;;;;;;;14.10;99.90;;;;;;5056475;28;19931;-75
2021/08/05 00:27:49;;;;;;;;;;;14.10;99.90;;;;;;5067628;28;19939;-75
2021/08/05 00:30:22;;;;;;;;;;;14.10;99.90;;;;;;5071096;28;20387;-75
2021/08/05 00:32:53;;;;;;;;;;;14.00;99.90;;;;;;5072674;28;19955;-75
2021/08/05 00:35:20;;;;;;;;;;;14.00;99.90;;;;;;5056433;28;19947;-75
2021/08/05 00:37:52;;;;;;;;;;;14.00;99.90;;;;;;5056651;28;20345;-75
2021/08/05 00:40:19;;;;;;;;;;;13.90;99.90;;;;;;5071845;28;20345;-75
2021/08/05 00:42:49;;;;;;;;;;;14.00;99.90;;;;;;5072744;28;19929;-75
2021/08/05 00:45:17;;;;;;;;;;;14.00;99.90;;;;;;5072875;28;19967;-75
2021/08/05 00:47:49;;;;;;;;;;;14.00;99.90;;;;;;5072970;28;19928;-75
2021/08/05 00:50:21;;;;;;;;;;;14.00;99.90;;;;;;5057215;28;19925;-75
2021/08/05 00:52:48;;;;;;;;;;;14.00;99.90;;;;;;5055974;28;19935;-75
2021/08/05 00:55:19;;;;;;;;;;;14.00;99.90;;;;;;5072793;28;20015;-76
2021/08/05 00:57:51;;;;;;;;;;;13.90;99.90;;;;;;5056825;28;20378;-75
2021/08/05 01:00:19;;;;;;;;;;;13.90;99.90;;;;;;5072188;28;20379;-75
2021/08/05 01:02:53;;;;;;;;;;;13.90;99.90;;;;;;5055547;28;20399;-75
2021/08/05 01:05:21;;;;;;;;;;;13.90;99.90;;;;;;5055582;28;19924;-75
2021/08/05 01:07:58;;;;;;;;;;;13.90;99.90;;;;;;5072181;28;19971;-75
2021/08/05 01:10:30;;;;;;;;;;;13.90;99.90;;;;;;5055413;28;20226;-75
2021/08/05 01:13:12;;;;;;;;;;;13.80;99.90;;;;;;5071548;28;19963;-75
2021/08/05 01:15:39;;;;;;;;;;;13.80;99.90;;;;;;5055084;28;19931;-75
2021/08/05 01:18:13;;;;;;;;;;;13.80;99.90;;;;;;5054966;28;19924;-74
2021/08/05 01:20:45;;;;;;;;;;;13.80;99.90;;;;;;5072017;28;19924;-74
2021/08/05 01:23:31;;;;;;;;;;;13.80;99.90;;;;;;5071549;28;20569;-75
2021/08/05 01:26:18;;;;;;;;;;;13.80;99.90;;;;;;5055791;28;20298;-74
2021/08/05 01:28:45;;;;;;;;;;;13.80;99.90;;;;;;5071975;28;19924;-75
2021/08/05 01:31:12;;;;;;;;;;;13.80;99.90;;;;;;5054793;28;19924;-74
2021/08/05 01:33:39;;;;;;;;;;;13.80;99.90;;;;;;5072190;28;20023;-75
2021/08/05 01:36:07;;;;;;;;;;;13.80;99.90;;;;;;5055487;28;19925;-75
2021/08/05 01:38:40;;;;;;;;;;;13.80;99.90;;;;;;5072297;28;20386;-75
2021/08/05 01:41:07;;;;;;;;;;;13.80;99.90;;;;;;5054779;28;20398;-75
2021/08/05 01:43:40;;;;;;;;;;;13.90;99.90;;;;;;5055184;28;20031;-75
2021/08/05 01:46:06;;;;;;;;;;;13.90;99.90;;;;;;5071270;28;20019;-75
2021/08/05 01:48:39;;;;;;;;;;;13.90;99.90;;;;;;5055372;28;19931;-75
2021/08/05 01:51:10;;;;;;;;;;;13.90;99.90;;;;;;5054980;28;19978;-75
2021/08/05 01:53:42;;;;;;;;;;;13.90;99.90;;;;;;5055629;28;19967;-75
2021/08/05 01:56:14;;;;;;;;;;;13.90;99.90;;;;;;5071601;28;20298;-75
2021/08/05 01:58:41;;;;;;;;;;;13.80;99.90;;;;;;5054933;28;19925;-75
2021/08/05 02:01:07;;;;;;;;;;;13.80;99.90;;;;;;5071399;28;19924;-75
2021/08/05 02:03:39;;;;;;;;;;;13.80;99.90;;;;;;5055617;28;19926;-75
2021/08/05 02:06:16;;;;;;;;;;;13.80;99.90;;;;;;5055503;28;19925;-75
2021/08/05 02:08:43;;;;;;;;;;;13.80;99.90;;;;;;5054665;28;20015;-75
2021/08/05 02:11:15;;;;;;;;;;;13.80;99.90;;;;;;5054917;28;19931;-75
2021/08/05 02:13:42;;;;;;;;;;;13.70;99.90;;;;;;5054681;28;19925;-75
2021/08/05 02:16:13;;;;;;;;;;;13.70;99.90;;;;;;5054551;28;20437;-75
2021/08/05 02:18:43;;;;;;;;;;;13.70;99.90;;;;;;5072423;28;19967;-75
2021/08/05 02:21:12;;;;;;;;;;;13.60;99.90;;;;;;5070759;28;19966;-75
2021/08/05 02:23:44;;;;;;;;;;;13.60;99.90;;;;;;5071004;28;20398;-75
2021/08/05 02:26:16;;;;;;;;;;;13.70;99.90;;;;;;5071030;28;19928;-75
2021/08/05 02:28:43;;;;;;;;;;;13.70;99.90;;;;;;5054170;28;19924;-75
2021/08/05 02:31:13;;;;;;;;;;;13.60;99.90;;;;;;5070727;28;20322;-75
2021/08/05 02:33:45;;;;;;;;;;;13.60;99.90;;;;;;5070901;28;19931;-76
2021/08/05 02:36:17;;;;;;;;;;;13.60;99.90;;;;;;5070845;28;19924;-75
2021/08/05 02:38:47;;;;;;;;;;;13.60;99.90;;;;;;5054985;28;19928;-74
2021/08/05 02:41:19;;;;;;;;;;;13.60;99.90;;;;;;5054714;28;19924;-75
2021/08/05 02:43:50;;;;;;;;;;;13.60;99.90;;;;;;5070953;28;19925;-75
2021/08/05 02:46:24;;;;;;;;;;;13.60;99.90;;;;;;5070649;28;19928;-75
2021/08/05 02:48:56;;;;;;;;;;;13.60;99.90;;;;;;5070783;28;20298;-75
2021/08/05 02:51:28;;;;;;;;;;;13.60;99.90;;;;;;5070525;28;19925;-75
2021/08/05 02:54:00;;;;;;;;;;;13.60;99.90;;;;;;5070713;28;19924;-75
2021/08/05 02:56:33;;;;;;;;;;;13.60;99.90;;;;;;5070427;28;19925;-74
2021/08/05 02:59:01;;;;;;;;;;;13.60;99.90;;;;;;5054370;28;19968;-76
2021/08/05 03:01:33;;;;;;;;;;;13.60;99.90;;;;;;5054456;28;19928;-75
2021/08/05 03:04:05;;;;;;;;;;;13.60;99.90;;;;;;5054830;28;19975;-75
2021/08/05 03:06:32;;;;;;;;;;;13.60;99.90;;;;;;5071781;28;20007;-75
2021/08/05 03:09:03;;;;;;;;;;;13.60;99.90;;;;;;5071877;28;20033;-75
2021/08/05 03:11:37;;;;;;;;;;;13.60;99.90;;;;;;5070172;28;20383;-75
2021/08/05 03:14:04;;;;;;;;;;;13.60;99.90;;;;;;5070553;28;19928;-75
2021/08/05 03:16:37;;;;;;;;;;;13.70;99.90;;;;;;5070347;28;20345;-75
2021/08/05 03:19:03;;;;;;;;;;;13.70;99.90;;;;;;5053350;28;20355;-75
2021/08/05 03:21:36;;;;;;;;;;;13.70;99.90;;;;;;5070278;28;19928;-75
2021/08/05 03:24:03;;;;;;;;;;;13.70;99.90;;;;;;5053775;28;19978;-75
2021/08/05 03:26:30;;;;;;;;;;;13.70;99.90;;;;;;5053897;28;20306;-75
2021/08/05 03:28:57;;;;;;;;;;;13.70;99.90;;;;;;5070210;28;19928;-75
2021/08/05 03:31:23;;;;;;;;;;;13.70;99.90;;;;;;5069589;28;19924;-75
2021/08/05 03:33:55;;;;;;;;;;;13.80;99.90;;;;;;5069940;28;20400;-75
2021/08/05 03:36:22;;;;;;;;;;;13.80;99.90;;;;;;5069488;28;19924;-75
2021/08/05 03:38:54;;;;;;;;;;;13.80;99.90;;;;;;5053723;28;19931;-75
2021/08/05 03:41:26;;;;;;;;;;;13.90;99.90;;;;;;5070743;28;19982;-75
2021/08/05 03:43:52;;;;;;;;;;;13.80;99.90;;;;;;5074872;28;20382;-75
2021/08/05 03:46:19;;;;;;;;;;;13.80;99.90;;;;;;5073607;28;20019;-75
2021/08/05 03:48:51;;;;;;;;;;;13.70;99.90;;;;;;5073495;28;19931;-75
2021/08/05 03:51:23;;;;;;;;;;;13.80;99.90;;;;;;5072969;28;19925;-75
2021/08/05 03:53:49;;;;;;;;;;;13.70;99.90;;;;;;5073178;28;19964;-75
2021/08/05 03:56:21;;;;;;;;;;;13.70;99.90;;;;;;5073043;28;19931;-75
2021/08/05 03:58:49;;;;;;;;;;;13.80;99.90;;;;;;5074640;28;19974;-75
2021/08/05 04:01:17;;;;;;;;;;;13.70;99.90;;;;;;5056625;28;19990;-75
2021/08/05 04:03:45;;;;;;;;;;;13.60;99.90;;;;;;5056624;28;20023;-76
2021/08/05 04:06:17;;;;;;;;;;;13.60;99.90;;;;;;5057240;28;20445;-76
2021/08/05 04:08:43;;;;;;;;;;;13.60;99.90;;;;;;5073032;28;19970;-75
2021/08/05 04:11:10;;;;;;;;;;;13.60;99.90;;;;;;5072788;28;19998;-75
2021/08/05 04:13:42;;;;;;;;;;;13.60;99.90;;;;;;5073091;28;20027;-75
2021/08/05 04:16:16;;;;;;;;;;;13.50;99.90;;;;;;5073142;28;19929;-75
2021/08/05 04:18:42;;;;;;;;;;;13.50;99.90;;;;;;5073234;28;19925;-76
2021/08/05 04:21:14;;;;;;;;;;;13.50;99.90;;;;;;5072647;28;20011;-75
2021/08/05 04:23:42;;;;;;;;;;;13.50;99.90;;;;;;5074172;28;19924;-76
2021/08/05 04:26:08;;;;;;;;;;;13.50;99.90;;;;;;5056154;28;20034;-75
2021/08/05 04:28:40;;;;;;;;;;;13.60;99.90;;;;;;5072683;28;20348;-75
2021/08/05 04:31:07;;;;;;;;;;;13.50;99.90;;;;;;5055809;28;19982;-76
2021/08/05 04:33:34;;;;;;;;;;;13.60;99.90;;;;;;5072743;28;19928;-76
2021/08/05 04:36:06;;;;;;;;;;;13.50;99.90;;;;;;5057313;28;19973;-75
2021/08/05 04:38:39;;;;;;;;;;;13.50;99.90;;;;;;5057516;28;20009;-76
2021/08/05 04:41:06;;;;;;;;;;;13.50;99.90;;;;;;5056324;28;19925;-75
2021/08/05 04:43:32;;;;;;;;;;;13.50;99.90;;;;;;5073065;28;19974;-76
2021/08/05 04:45:59;;;;;;;;;;;13.60;99.90;;;;;;5070858;28;20302;-75
2021/08/05 04:48:27;;;;;;;;;;;13.60;99.90;;;;;;5057667;28;19981;-75
2021/08/05 04:50:59;;;;;;;;;;;13.50;99.90;;;;;;5056788;28;20024;-75
2021/08/05 04:53:26;;;;;;;;;;;13.50;99.90;;;;;;5061718;28;19924;-75
2021/08/05 04:55:53;;;;;;;;;;;13.50;99.90;;;;;;5060329;28;19924;-74
2021/08/05 04:58:24;;;;;;;;;;;13.50;99.90;;;;;;5053045;28;19974;-75
2021/08/05 05:00:53;;;;;;;;;;;13.50;99.90;;;;;;5057693;28;19928;-75
2021/08/05 05:03:24;;;;;;;;;;;13.50;99.90;;;;;;5063572;28;19931;-75
2021/08/05 05:05:51;;;;;;;;;;;13.50;99.90;;;;;;5057601;28;19929;-75
2021/08/05 05:08:23;;;;;;;;;;;13.50;99.90;;;;;;5069486;28;19924;-75
2021/08/05 05:10:53;;;;;;;;;;;13.50;99.90;;;;;;5055539;28;19925;-75
2021/08/05 05:13:20;;;;;;;;;;;13.60;99.90;;;;;;5055491;28;19925;-75
2021/08/05 05:15:46;;;;;;;;;;;13.60;99.90;;;;;;5059537;28;20499;-75
2021/08/05 05:18:14;;;;;;;;;;;13.60;99.90;;;;;;5035013;28;19925;-75
2021/08/05 05:20:47;;;;;;;;;;;13.60;99.90;;;;;;5055085;28;19968;-75
2021/08/05 05:23:14;;;;;;;;;;;13.60;99.90;;;;;;5050178;28;19925;-75
2021/08/05 05:25:41;;;;;;;;;;;13.70;99.90;;;;;;5048635;28;20058;-75
2021/08/05 05:28:13;;;;;;;;;;;13.70;99.90;;;;;;5053327;28;19925;-75
2021/08/05 05:30:45;;;;;;;;;;;13.70;99.90;;;;;;5051139;28;19925;-75
2021/08/05 05:33:12;;;;;;;;;;;13.70;99.90;;;;;;5050565;28;20287;-75
2021/08/05 05:35:43;;;;;;;;;;;13.70;99.90;;;;;;5051320;28;19931;-75
2021/08/05 05:38:10;;;;;;;;;;;13.70;99.90;;;;;;5050912;28;20302;-75
2021/08/05 05:40:38;;;;;;;;;;;13.70;99.90;;;;;;5033899;28;20028;-75
2021/08/05 05:43:05;;;;;;;;;;;13.80;99.90;;;;;;5061269;28;19947;-75
2021/08/05 05:45:33;;;;;;;;;;;13.70;99.90;;;;;;5069943;28;19924;-75
2021/08/05 05:48:03;;;;;;;;;;;13.70;99.90;;;;;;5056519;28;19925;-75
2021/08/05 05:50:30;;;;;;;;;;;13.70;99.90;;;;;;5062113;28;20347;-75
2021/08/05 05:52:57;;;;;;;;;;;13.80;99.90;;;;;;5063706;28;19935;-75
2021/08/05 05:55:29;;;;;;;;;;;13.80;99.90;;;;;;5054887;28;19924;-73
2021/08/05 05:58:03;;;;;;;;;;;13.80;99.90;;;;;;5066796;28;19924;-73
2021/08/05 06:00:30;;;;;;;;;;;13.80;99.90;;;;;;5045031;28;19960;-74
2021/08/05 06:03:02;;;;;;;;;;;13.90;99.90;;;;;;5049632;28;19924;-73
2021/08/05 06:05:34;;;;;;;;;;;13.90;99.90;;;;;;5051028;28;19925;-73
2021/08/05 06:08:06;;;;;;;;;;;14.00;99.90;;;;;;5051145;28;20357;-74
2021/08/05 06:10:40;;;;;;;;;;;14.10;99.90;;;;;;5051251;28;20326;-73
2021/08/05 06:13:08;;;;;;;;;;;14.20;99.90;;;;;;5051301;28;19925;-74
2021/08/05 06:15:36;;;;;;;;;;;14.20;99.90;;;;;;5051100;28;20377;-74
2021/08/05 06:18:03;;;;;;;;;;;14.20;99.90;;;;;;5051237;28;20013;-73
2021/08/05 06:20:35;;;;;;;;;;;14.20;99.90;;;;;;5052619;28;19925;-73
2021/08/05 06:23:10;;;;;;;;;;;14.20;99.90;;;;;;5035143;28;19928;-73
2021/08/05 06:25:38;;;;;;;;;;;14.20;99.90;;;;;;5034930;28;19924;-74
2021/08/05 06:28:06;;;;;;;;;;;14.30;99.90;;;;;;5050963;28;19925;-73
2021/08/05 06:30:32;;;;;;;;;;;14.30;99.90;;;;;;5051378;28;19964;-73
2021/08/05 06:33:00;;;;;;;;;;;14.30;99.90;;;;;;5050771;28;19925;-73
2021/08/05 06:35:30;;;;;;;;;;;14.30;99.90;;;;;;5034551;28;19970;-73
2021/08/05 06:37:59;;;;;;;;;;;14.30;99.90;;;;;;5050835;28;19924;-74
2021/08/05 06:40:28;;;;;;;;;;;14.40;99.90;;;;;;5034604;28;19929;-74
2021/08/05 06:42:55;;;;;;;;;;;14.30;99.90;;;;;;5050689;28;19925;-73
2021/08/05 06:45:22;;;;;;;;;;;14.30;99.90;;;;;;5052101;28;19929;-73
2021/08/05 06:47:50;;;;;;;;;;;14.30;99.90;;;;;;5051156;28;20277;-74
2021/08/05 06:50:21;;;;;;;;;;;14.30;99.90;;;;;;5034944;28;19982;-73
2021/08/05 06:52:56;;;;;;;;;;;14.30;99.90;;;;;;5050437;28;19933;-74
2021/08/05 06:55:28;;;;;;;;;;;14.40;99.90;;;;;;5050880;28;19979;-74
2021/08/05 06:57:55;;;;;;;;;;;14.40;99.90;;;;;;5050804;28;19929;-74
2021/08/05 07:00:27;;;;;;;;;;;14.50;99.90;;;;;;5034728;28;20396;-74
2021/08/05 07:02:58;;;;;;;;;;;14.50;99.90;;;;;;5050584;28;19931;-74
2021/08/05 07:05:27;;;;;;;;;;;14.70;99.90;;;;;;5050482;28;19931;-73
2021/08/05 07:07:58;;;;;;;;;;;14.80;99.90;;;;;;5050912;28;20314;-74
2021/08/05 07:10:29;;;;;;;;;;;14.80;99.90;;;;;;5052074;28;20306;-73
2021/08/05 07:13:00;;;;;;;;;;;14.90;99.90;;;;;;5050361;28;19924;-74
2021/08/05 07:15:32;;;;;;;;;;;15.00;99.90;;;;;;5050828;28;19929;-73
2021/08/05 07:18:04;;;;;;;;;;;15.00;99.90;;;;;;5054970;28;19925;-74
2021/08/05 07:20:31;;;;;;;;;;;15.10;99.90;;;;;;5038141;28;19964;-73
2021/08/05 07:23:02;;;;;;;;;;;15.20;99.90;;;;;;5054497;28;19931;-74
2021/08/05 07:25:29;;;;;;;;;;;15.30;99.90;;;;;;5054615;28;19991;-74
2021/08/05 07:28:01;;;;;;;;;;;15.40;99.90;;;;;;5055776;28;20011;-74
2021/08/05 07:30:33;;;;;;;;;;;15.50;99.90;;;;;;5054547;28;19931;-73
2021/08/05 07:33:05;;;;;;;;;;;15.60;99.90;;;;;;5038220;28;19925;-73
2021/08/05 07:35:37;;;;;;;;;;;15.70;99.90;;;;;;5055552;28;19924;-74
2021/08/05 07:38:09;;;;;;;;;;;15.70;99.90;;;;;;5055401;28;19925;-74
2021/08/05 07:40:43;;;;;;;;;;;15.70;99.90;;;;;;5055765;28;19925;-73
2021/08/05 07:43:15;;;;;;;;;;;15.70;99.90;;;;;;5038288;28;19925;-73
2021/08/05 07:45:47;;;;;;;;;;;15.80;99.90;;;;;;5038286;28;19983;-74
2021/08/05 07:48:18;;;;;;;;;;;15.80;99.90;;;;;;5038282;28;20024;-73
2021/08/05 07:50:51;;;;;;;;;;;15.90;99.90;;;;;;5054032;28;20015;-73
2021/08/05 07:53:18;;;;;;;;;;;15.90;99.90;;;;;;5055358;28;19929;-73
2021/08/05 07:55:49;;;;;;;;;;;16.00;99.90;;;;;;5054223;28;19931;-74
2021/08/05 07:58:23;;;;;;;;;;;16.10;99.90;;;;;;5054105;28;19925;-73
2021/08/05 08:00:51;;;;;;;;;;;16.20;99.90;;;;;;5054034;28;20051;-74
2021/08/05 08:03:23;;;;;;;;;;;16.20;99.90;;;;;;5053785;28;19932;-74
2021/08/05 08:05:49;;;;;;;;;;;16.20;99.90;;;;;;5053926;28;19987;-73
2021/08/05 08:08:19;;;;;;;;;;;16.30;99.90;;;;;;5053979;28;19925;-74
2021/08/05 08:10:46;;;;;;;;;;;16.40;99.90;;;;;;5037462;28;19947;-74
2021/08/05 08:13:17;;;;;;;;;;;16.50;99.90;;;;;;5053482;28;19935;-73
2021/08/05 08:15:46;;;;;;;;;;;16.60;99.90;;;;;;5053623;28;19928;-73
2021/08/05 08:18:15;;;;;;;;;;;16.70;99.90;;;;;;5054903;28;20288;-73
2021/08/05 08:20:47;;;;;;;;;;;16.80;99.90;;;;;;5053718;28;19925;-74
2021/08/05 08:23:15;;;;;;;;;;;16.80;99.90;;;;;;5037046;28;19931;-73
2021/08/05 08:25:46;;;;;;;;;;;16.90;99.90;;;;;;5053726;28;19963;-73
2021/08/05 08:28:13;;;;;;;;;;;16.90;99.90;;;;;;5036599;28;20011;-74
2021/08/05 08:30:45;;;;;;;;;;;16.90;99.90;;;;;;5037660;28;19925;-73
2021/08/05 08:33:17;;;;;;;;;;;16.90;99.90;;;;;;5037347;28;19956;-74
2021/08/05 08:35:43;;;;;;;;;;;17.00;99.90;;;;;;5053409;28;19925;-74
2021/08/05 08:38:10;;;;;;;;;;;17.00;99.90;;;;;;5053171;28;19925;-74
2021/08/05 08:40:37;;;;;;;;;;;17.00;99.90;;;;;;5053440;28;19925;-74
2021/08/05 08:43:05;;;;;;;;;;;17.10;99.90;;;;;;5052942;28;19929;-73
2021/08/05 08:45:38;;;;;;;;;;;17.20;99.90;;;;;;5054875;28;19931;-74
2021/08/05 08:48:06;;;;;;;;;;;17.40;99.90;;;;;;5053715;28;19967;-74
2021/08/05 08:50:38;;;;;;;;;;;17.50;99.90;;;;;;5037303;28;19974;-73
2021/08/05 08:53:07;;;;;;;;;;;17.60;99.90;;;;;;5052764;28;19925;-74
2021/08/05 08:55:43;;;;;;;;;;;17.60;99.90;;;;;;5054553;28;19925;-73
2021/08/05 08:58:16;;;;;;;;;;;17.70;99.90;;;;;;5037199;28;19931;-73
2021/08/05 09:00:46;;;;;;;;;;;17.80;99.90;;;;;;5036945;28;19925;-74
2021/08/05 09:03:20;;;;;;;;;;;17.80;99.90;;;;;;5052729;28;19928;-74
2021/08/05 09:05:47;;;;;;;;;;;18.10;99.90;;;;;;5052907;28;19963;-74
2021/08/05 09:08:14;;;;;;;;;;;18.30;99.90;;;;;;5052965;28;19975;-74
2021/08/05 09:10:42;;;;;;;;;;;18.40;99.90;;;;;;5036213;28;19924;-74
2021/08/05 09:13:09;;;;;;;;;;;18.40;99.90;;;;;;5036201;28;19929;-74
2021/08/05 09:15:47;;;;;;;;;;;18.30;99.90;;;;;;5054003;28;19947;-74
2021/08/05 09:18:28;;;;;;;;;;;18.30;99.90;;;;;;5036303;28;19933;-74
2021/08/05 09:21:08;;;;;;;;;;;18.30;99.90;;;;;;5052503;28;20317;-73
2021/08/05 09:23:46;;;;;;;;;;;18.20;99.90;;;;;;5035920;28;20019;-74
2021/08/05 09:26:27;;;;;;;;;;;18.20;99.90;;;;;;5052438;28;20019;-73
2021/08/05 09:28:59;;;;;;;;;;;18.30;99.90;;;;;;5052506;28;20340;-73
2021/08/05 09:31:27;;;;;;;;;;;18.30;99.90;;;;;;5035712;28;19931;-73
2021/08/05 09:34:03;;;;;;;;;;;18.30;99.90;;;;;;5052386;28;19929;-74
2021/08/05 09:36:35;;;;;;;;;;;18.40;99.90;;;;;;5053540;28;19931;-73
2021/08/05 09:39:13;;;;;;;;;;;18.50;99.90;;;;;;5051375;28;19924;-74
2021/08/05 09:42:02;;;;;;;;;;;18.60;99.90;;;;;;5052128;28;20018;-73
2021/08/05 09:44:49;;;;;;;;;;;18.80;99.90;;;;;;5035653;28;20119;-74
2021/08/05 09:47:19;;;;;;;;;;;18.80;99.90;;;;;;5051872;28;19925;-73
2021/08/05 09:49:46;;;;;;;;;;;18.70;99.90;;;;;;5052035;28;19924;-74
2021/08/05 09:52:24;;;;;;;;;;;18.40;99.90;;;;;;5051879;28;20438;-73
2021/08/05 09:54:51;;;;;;;;;;;18.50;99.90;;;;;;5053159;28;20027;-74
2021/08/05 09:57:23;;;;;;;;;;;18.60;99.90;;;;;;5035414;28;19974;-73
2021/08/05 09:59:56;;;;;;;;;;;18.60;99.90;;;;;;5051914;28;19925;-73
2021/08/05 10:02:47;;;;;;;;;;;18.70;99.90;;;;;;5052710;28;19925;-74
2021/08/05 10:05:21;;;;;;;;;;;18.60;99.90;;;;;;5051886;28;20454;-73
2021/08/05 10:07:58;;;;;;;;;;;18.60;99.90;;;;;;5051903;28;19924;-73
2021/08/05 10:10:27;;;;;;;;;;;18.70;99.90;;;;;;5051783;28;19956;-74
2021/08/05 10:12:58;;;;;;;;;;;18.60;99.90;;;;;;5051389;28;19984;-73
2021/08/05 10:15:29;;;;;;;;;;;18.60;99.90;;;;;;5035959;28;20319;-74
2021/08/05 10:17:59;;;;;;;;;;;18.70;99.90;;;;;;5051774;28;20150;-73
2021/08/05 10:20:27;;;;;;;;;;;18.80;99.90;;;;;;5035032;28;20462;-74
2021/08/05 10:22:59;;;;;;;;;;;18.80;99.90;;;;;;5051124;28;20357;-73
2021/08/05 10:25:27;;;;;;;;;;;18.90;99.90;;;;;;5051410;28;19924;-74
2021/08/05 10:28:00;;;;;;;;;;;19.00;99.90;;;;;;5051775;28;20393;-73
2021/08/05 10:30:28;;;;;;;;;;;19.00;99.90;;;;;;5035069;28;19929;-73
2021/08/05 10:32:59;;;;;;;;;;;19.10;99.90;;;;;;5052364;28;19928;-73
2021/08/05 10:35:26;;;;;;;;;;;19.20;99.90;;;;;;5051254;28;19925;-73
2021/08/05 10:37:58;;;;;;;;;;;19.20;99.90;;;;;;5035318;28;20380;-73
2021/08/05 10:40:31;;;;;;;;;;;19.30;99.90;;;;;;5052618;28;19928;-74
2021/08/05 10:43:04;;;;;;;;;;;19.40;99.90;;;;;;5050868;28;19925;-73
2021/08/05 10:45:36;;;;;;;;;;;19.50;99.90;;;;;;5050886;28;20023;-73
2021/08/05 10:48:08;;;;;;;;;;;19.50;99.90;;;;;;5052618;28;19931;-74
2021/08/05 10:50:40;;;;;;;;;;;19.60;99.90;;;;;;5051022;28;19925;-73
2021/08/05 10:53:09;;;;;;;;;;;19.60;99.90;;;;;;5050999;28;20354;-73
2021/08/05 10:55:41;;;;;;;;;;;19.60;99.90;;;;;;5051421;28;19931;-73
2021/08/05 10:58:17;;;;;;;;;;;19.50;99.90;;;;;;5051445;28;20279;-73
2021/08/05 11:00:53;;;;;;;;;;;19.50;99.90;;;;;;5050317;28;19929;-73
2021/08/05 11:03:32;;;;;;;;;;;19.70;99.90;;;;;;5050115;28;19931;-73
2021/08/05 11:05:59;;;;;;;;;;;20.00;99.90;;;;;;5051360;28;19939;-73
2021/08/05 11:08:27;;;;;;;;;;;20.20;99.90;;;;;;5033791;28;20020;-73
2021/08/05 11:11:17;;;;;;;;;;;20.30;99.90;;;;;;5051266;28;19983;-73
2021/08/05 11:14:12;;;;;;;;;;;20.20;99.90;;;;;;5050251;28;19925;-74
2021/08/05 11:16:58;;;;;;;;;;;20.40;99.90;;;;;;5051544;28;20037;-73
2021/08/05 11:19:26;;;;;;;;;;;20.40;99.90;;;;;;5050421;28;19925;-73
2021/08/05 11:22:19;;;;;;;;;;;20.50;99.90;;;;;;5049576;28;19950;-73
2021/08/05 11:24:51;;;;;;;;;;;20.30;99.90;;;;;;5050043;28;19931;-73
2021/08/05 11:27:19;;;;;;;;;;;20.20;99.90;;;;;;5051375;28;20023;-73
2021/08/05 11:29:48;;;;;;;;;;;20.30;99.90;;;;;;5033502;28;19967;-73
2021/08/05 11:32:26;;;;;;;;;;;20.20;99.90;;;;;;5049751;28;20380;-73
2021/08/05 11:35:00;;;;;;;;;;;20.20;99.90;;;;;;5050203;28;19931;-73
2021/08/05 11:37:29;;;;;;;;;;;20.40;99.90;;;;;;5063410;28;20456;-73
2021/08/05 11:40:03;;;;;;;;;;;20.60;99.90;;;;;;5065988;28;19935;-73
2021/08/05 11:42:29;;;;;;;;;;;20.80;99.90;;;;;;5048219;28;19924;-73
2021/08/05 11:45:04;;;;;;;;;;;20.90;99.90;;;;;;5042711;28;20437;-73
2021/08/05 11:47:34;;;;;;;;;;;20.90;99.90;;;;;;5069577;28;19929;-73
2021/08/05 11:50:16;;;;;;;;;;;20.90;99.90;;;;;;5051841;28;19924;-73
2021/08/05 11:52:44;;;;;;;;;;;21.00;99.90;;;;;;5055267;28;19924;-73
2021/08/05 11:55:10;;;;;;;;;;;21.20;99.90;;;;;;5059591;28;19925;-73
2021/08/05 11:57:49;;;;;;;;;;;21.20;99.90;;;;;;5063366;28;19930;-73
2021/08/05 12:00:21;;;;;;;;;;;21.30;99.90;;;;;;5051204;28;19928;-74
2021/08/05 12:03:02;;;;;;;;;;;21.40;99.90;;;;;;5057400;28;19931;-74
2021/08/05 12:05:46;;;;;;;;;;;21.40;99.90;;;;;;5060507;28;19931;-74
2021/08/05 12:08:18;;;;;;;;;;;21.60;99.90;;;;;;5070985;28;19953;-74
2021/08/05 12:10:45;;;;;;;;;;;21.60;99.90;;;;;;5059929;28;19990;-74
2021/08/05 12:13:18;;;;;;;;;;;21.80;99.90;;;;;;5056723;28;19932;-73
2021/08/05 12:15:46;;;;;;;;;;;21.90;99.90;;;;;;5056383;28;20691;-74
2021/08/05 12:18:20;;;;;;;;;;;21.90;99.90;;;;;;5072890;28;19924;-74
2021/08/05 12:20:49;;;;;;;;;;;21.90;99.90;;;;;;5072895;28;20015;-74
2021/08/05 12:23:27;;;;;;;;;;;21.80;99.90;;;;;;5073907;28;19930;-74
2021/08/05 12:26:17;;;;;;;;;;;21.70;99.90;;;;;;5056132;28;19928;-74
2021/08/05 12:28:47;;;;;;;;;;;21.80;99.90;;;;;;5072993;28;19928;-74
2021/08/05 12:31:23;;;;;;;;;;;21.90;99.90;;;;;;5054344;28;19931;-73
2021/08/05 12:33:55;;;;;;;;;;;22.20;99.90;;;;;;5052764;28;20391;-74
2021/08/05 12:36:26;;;;;;;;;;;22.20;99.90;;;;;;5053666;28;19925;-74
2021/08/05 12:39:08;;;;;;;;;;;22.10;99.90;;;;;;5052615;28;20031;-74
2021/08/05 12:41:39;;;;;;;;;;;21.90;99.90;;;;;;5053310;28;19925;-74
2021/08/05 12:44:14;;;;;;;;;;;22.10;99.90;;;;;;5053746;28;19928;-73
2021/08/05 12:46:50;;;;;;;;;;;22.20;99.90;;;;;;5052513;28;19938;-74
2021/08/05 12:49:28;;;;;;;;;;;22.50;99.90;;;;;;5071800;28;19931;-73
2021/08/05 12:51:56;;;;;;;;;;;22.50;99.90;;;;;;5055421;28;20609;-73
2021/08/05 12:54:28;;;;;;;;;;;22.40;99.90;;;;;;5073775;28;19924;-74
2021/08/05 12:57:10;;;;;;;;;;;22.50;99.90;;;;;;5072550;28;20015;-73
2021/08/05 12:59:41;;;;;;;;;;;22.60;99.90;;;;;;5062299;28;20001;-73
2021/08/05 13:02:08;;;;;;;;;;;22.70;99.90;;;;;;5049686;28;19925;-74
2021/08/05 13:04:44;;;;;;;;;;;22.70;99.90;;;;;;5070203;28;19950;-73
2021/08/05 13:07:17;;;;;;;;;;;22.80;99.90;;;;;;5049099;28;19979;-73
2021/08/05 13:09:50;;;;;;;;;;;23.10;99.90;;;;;;5052141;28;20310;-73
2021/08/05 13:12:27;;;;;;;;;;;23.00;99.90;;;;;;5053078;28;19931;-73
2021/08/05 13:15:02;;;;;;;;;;;23.10;99.90;;;;;;5056166;28;20379;-73
2021/08/05 13:17:40;;;;;;;;;;;22.90;99.90;;;;;;5073193;28;19999;-73
2021/08/05 13:20:19;;;;;;;;;;;22.80;99.90;;;;;;5057260;28;19976;-74
2021/08/05 13:22:50;;;;;;;;;;;23.00;99.90;;;;;;5054782;28;19928;-73
2021/08/05 13:25:24;;;;;;;;;;;23.20;99.90;;;;;;5063472;28;19936;-73
2021/08/05 13:28:06;;;;;;;;;;;23.20;99.90;;;;;;5064365;28;19936;-73
2021/08/05 13:30:39;;;;;;;;;;;23.30;99.90;;;;;;5055074;28;19924;-73
2021/08/05 13:33:26;;;;;;;;;;;23.50;99.90;;;;;;5064557;28;19925;-73
2021/08/05 13:35:59;;;;;;;;;;;23.70;99.90;;;;;;5064545;28;19971;-73
2021/08/05 13:38:50;;;;;;;;;;;24.00;99.90;;;;;;5052234;28;19932;-73
2021/08/05 13:41:17;;;;;;;;;;;23.90;99.90;;;;;;5063824;28;20419;-73
2021/08/05 13:43:47;;;;;;;;;;;23.90;99.90;;;;;;5062358;28;19924;-74
2021/08/05 13:46:13;;;;;;;;;;;23.90;99.90;;;;;;5057119;28;20387;-74
2021/08/05 13:48:45;;;;;;;;;;;23.80;99.90;;;;;;5050994;28;19925;-74
2021/08/05 13:51:17;;;;;;;;;;;23.70;99.90;;;;;;5051821;28;20142;-72
2021/08/05 13:53:49;;;;;;;;;;;23.40;99.90;;;;;;5063958;28;19924;-73
2021/08/05 13:56:16;;;;;;;;;;;23.10;99.90;;;;;;5055484;28;20072;-72
2021/08/05 13:58:48;;;;;;;;;;;22.90;99.90;;;;;;5047105;28;19929;-73
2021/08/05 14:01:15;;;;;;;;;;;22.80;99.90;;;;;;5058290;28;20019;-74
2021/08/05 14:03:42;;;;;;;;;;;22.90;99.90;;;;;;5068788;28;19932;-73
2021/08/05 14:06:14;;;;;;;;;;;22.90;99.90;;;;;;5061763;28;19932;-73
2021/08/05 14:08:45;;;;;;;;;;;22.90;99.90;;;;;;5069977;28;19930;-73
2021/08/05 14:11:17;;;;;;;;;;;22.90;99.90;;;;;;5069867;28;19958;-73
2021/08/05 14:13:43;;;;;;;;;;;22.80;99.90;;;;;;5069836;28;20349;-73
2021/08/05 14:16:15;;;;;;;;;;;22.60;99.90;;;;;;5054509;28;19934;-73
2021/08/05 14:18:47;;;;;;;;;;;22.70;99.90;;;;;;5060985;28;19924;-73
2021/08/05 14:21:14;;;;;;;;;;;22.70;99.90;;;;;;5063098;28;20413;-73
2021/08/05 14:23:41;;;;;;;;;;;22.70;99.90;;;;;;5054864;28;19931;-74
2021/08/05 14:26:13;;;;;;;;;;;22.70;99.90;;;;;;5051766;28;19932;-74
2021/08/05 14:28:44;;;;;;;;;;;22.60;99.90;;;;;;5060618;28;19928;-74
2021/08/05 14:31:20;;;;;;;;;;;22.60;99.90;;;;;;5049992;28;20351;-73
2021/08/05 14:33:53;;;;;;;;;;;22.60;99.90;;;;;;5069987;28;19963;-73
2021/08/05 14:36:20;;;;;;;;;;;22.70;99.90;;;;;;5062691;28;20015;-73
2021/08/05 14:38:47;;;;;;;;;;;22.90;99.90;;;;;;5049408;28;19939;-74